Time;durP1;ratioP1;P1;durP2;ratioP2;P2;SDS_P1;SDS_P2;PMS_P1;PMS_P2;Temp;Humidity;BMP_temperature;BMP_pressure;BME280_temperature;BME280_humidity;BME280_pressure;Samples;Min_cycle;Max_cycle;Signal;HPM_P1;HPM_P2
2020/12/10 00:00:42;;;;;;;9.83;6.08;;;21.30;41.00;;;;;;1443916;96;21314;-31
2020/12/10 00:03:09;;;;;;;8.90;6.40;;;21.30;41.10;;;;;;1446051;96;21715;-32
2020/12/10 00:05:40;;;;;;;9.28;6.67;;;21.30;41.00;;;;;;1447184;96;21227;-30
2020/12/10 00:08:07;;;;;;;8.00;6.15;;;21.30;41.00;;;;;;1456332;96;21217;-34
2020/12/10 00:10:35;;;;;;;8.03;6.72;;;21.30;41.00;;;;;;1458808;96;21323;-33
2020/12/10 00:13:03;;;;;;;9.23;6.47;;;21.30;41.00;;;;;;1461284;96;21290;-34
2020/12/10 00:15:30;;;;;;;7.80;5.67;;;21.20;40.90;;;;;;1458608;96;21243;-33
2020/12/10 00:17:58;;;;;;;6.15;5.08;;;21.20;40.90;;;;;;1440661;96;21699;-34
2020/12/10 00:20:25;;;;;;;7.00;5.42;;;21.20;40.90;;;;;;1465573;95;21268;-31
2020/12/10 00:22:53;;;;;;;9.30;5.80;;;21.20;40.90;;;;;;1461007;96;21866;-33
2020/12/10 00:25:21;;;;;;;8.55;6.20;;;21.20;40.90;;;;;;1437787;96;21244;-33
2020/12/10 00:27:48;;;;;;;7.58;5.60;;;21.20;40.90;;;;;;1445382;96;21192;-31
2020/12/10 00:30:16;;;;;;;8.15;5.53;;;21.20;40.90;;;;;;1449972;95;21287;-32
2020/12/10 00:32:44;;;;;;;9.23;6.00;;;21.20;40.90;;;;;;1452740;96;21255;-32
2020/12/10 00:35:12;;;;;;;9.05;5.97;;;21.20;41.00;;;;;;1448827;96;21369;-32
2020/12/10 00:37:39;;;;;;;8.55;5.65;;;21.20;40.90;;;;;;1462575;96;21895;-32
2020/12/10 00:40:08;;;;;;;6.72;5.92;;;21.20;40.90;;;;;;1449860;96;21829;-31
2020/12/10 00:42:37;;;;;;;6.78;5.42;;;21.20;40.90;;;;;;1434359;97;21299;-31
2020/12/10 00:45:05;;;;;;;7.35;5.33;;;21.10;40.90;;;;;;1450097;96;21232;-32
2020/12/10 00:47:33;;;;;;;6.87;5.37;;;21.10;41.00;;;;;;1448834;97;21626;-32
2020/12/10 00:50:01;;;;;;;7.03;5.28;;;21.10;41.00;;;;;;1448514;96;21266;-31
2020/12/10 00:52:28;;;;;;;7.90;5.40;;;21.10;41.00;;;;;;1446447;97;21475;-33
2020/12/10 00:54:56;;;;;;;8.08;5.25;;;21.10;41.00;;;;;;1422505;97;21659;-34
2020/12/10 00:57:24;;;;;;;7.35;5.58;;;21.10;41.00;;;;;;1449904;96;21342;-34
2020/12/10 00:59:51;;;;;;;5.87;5.20;;;21.10;41.50;;;;;;1450424;96;21283;-33
2020/12/10 01:02:19;;;;;;;10.32;5.67;;;21.10;41.00;;;;;;1437009;97;21315;-33
2020/12/10 01:04:47;;;;;;;6.33;5.17;;;21.00;40.90;;;;;;1450445;96;21227;-33
2020/12/10 01:07:14;;;;;;;6.58;5.42;;;21.10;41.00;;;;;;1447866;96;21318;-32
2020/12/10 01:09:42;;;;;;;7.65;5.85;;;21.00;41.00;;;;;;1435777;97;21415;-33
2020/12/10 01:12:10;;;;;;;8.40;6.08;;;21.00;41.00;;;;;;1448227;95;21223;-32
2020/12/10 01:14:38;;;;;;;6.47;5.10;;;21.00;41.00;;;;;;1448964;96;21357;-33
2020/12/10 01:17:06;;;;;;;7.70;5.37;;;21.00;40.90;;;;;;1448145;96;21281;-34
2020/12/10 01:19:33;;;;;;;6.90;5.47;;;21.00;41.00;;;;;;1453730;96;22153;-34
2020/12/10 01:22:01;;;;;;;6.87;5.05;;;21.00;41.00;;;;;;1428805;97;21277;-34
2020/12/10 01:24:29;;;;;;;7.20;4.80;;;21.00;41.00;;;;;;1458908;96;21223;-30
2020/12/10 01:26:56;;;;;;;6.58;4.83;;;21.00;41.00;;;;;;1456471;96;21280;-33
2020/12/10 01:29:24;;;;;;;8.95;5.55;;;21.00;41.00;;;;;;1455660;96;21334;-35
2020/12/10 01:31:53;;;;;;;6.37;4.85;;;20.90;40.90;;;;;;1456705;96;21263;-34
2020/12/10 01:34:21;;;;;;;6.03;5.25;;;20.90;40.90;;;;;;1427684;98;21330;-36
2020/12/10 01:36:49;;;;;;;7.53;5.03;;;20.90;41.00;;;;;;1469967;95;21268;-33
2020/12/10 01:39:16;;;;;;;6.20;5.17;;;20.90;41.00;;;;;;1450983;96;21291;-32
2020/12/10 01:41:44;;;;;;;5.45;4.55;;;20.90;40.90;;;;;;1421075;98;21240;-33
2020/12/10 01:44:14;;;;;;;6.75;4.65;;;20.90;40.90;;;;;;1446656;96;22349;-34
2020/12/10 01:46:43;;;;;;;6.10;4.65;;;20.90;40.90;;;;;;1456148;96;21783;-32
2020/12/10 01:49:11;;;;;;;7.83;5.03;;;20.90;40.90;;;;;;1431934;97;21248;-31
2020/12/10 01:51:39;;;;;;;6.53;4.45;;;20.90;40.90;;;;;;1451144;96;21666;-33
2020/12/10 01:54:07;;;;;;;6.47;4.72;;;20.90;40.90;;;;;;1438090;96;21214;-35
2020/12/10 01:56:35;;;;;;;5.22;4.55;;;20.90;41.00;;;;;;1452380;96;21226;-33
2020/12/10 01:59:04;;;;;;;5.78;4.40;;;20.90;41.00;;;;;;1451371;96;21384;-33
2020/12/10 02:01:33;;;;;;;6.35;4.80;;;20.90;41.00;;;;;;1454927;96;21252;-32
2020/12/10 02:04:01;;;;;;;6.65;4.40;;;20.90;41.10;;;;;;1455982;96;21251;-33
2020/12/10 02:06:29;;;;;;;5.45;4.80;;;20.90;41.00;;;;;;1444103;96;21315;-33
2020/12/10 02:08:56;;;;;;;5.97;4.65;;;20.90;41.00;;;;;;1439993;97;21211;-33
2020/12/10 02:11:24;;;;;;;6.15;4.85;;;20.90;41.00;;;;;;1454230;96;21216;-32
2020/12/10 02:13:52;;;;;;;8.08;5.10;;;20.90;41.00;;;;;;1454713;96;22454;-33
2020/12/10 02:16:20;;;;;;;6.37;4.28;;;20.80;40.90;;;;;;1451892;96;21322;-32
2020/12/10 02:18:51;;;;;;;5.65;4.40;;;20.90;41.00;;;;;;1457831;96;22428;-34
2020/12/10 02:21:18;;;;;;;4.60;3.92;;;20.80;41.00;;;;;;1450958;96;21298;-32
2020/12/10 02:23:46;;;;;;;5.22;3.87;;;20.90;41.00;;;;;;1457349;96;21232;-35
2020/12/10 02:26:13;;;;;;;5.22;4.28;;;20.80;41.00;;;;;;1450350;96;21274;-33
2020/12/10 02:28:41;;;;;;;5.17;4.30;;;20.80;40.90;;;;;;1433077;97;21326;-32
2020/12/10 02:31:09;;;;;;;5.50;4.47;;;20.80;41.50;;;;;;1461185;96;21537;-32
2020/12/10 02:33:36;;;;;;;6.62;4.40;;;20.80;41.00;;;;;;1434939;97;21239;-34
2020/12/10 02:36:04;;;;;;;5.58;4.40;;;20.80;41.00;;;;;;1462843;96;22145;-32
2020/12/10 02:38:32;;;;;;;5.75;4.37;;;20.80;41.00;;;;;;1445685;96;21224;-33
2020/12/10 02:40:59;;;;;;;8.03;4.55;;;20.80;41.00;;;;;;1442298;96;21360;-32
2020/12/10 02:43:27;;;;;;;5.60;4.28;;;20.80;41.00;;;;;;1457290;96;21266;-34
2020/12/10 02:45:55;;;;;;;7.10;4.35;;;20.80;41.10;;;;;;1460943;95;21374;-32
2020/12/10 02:48:22;;;;;;;5.97;4.58;;;20.80;41.00;;;;;;1456981;96;21219;-32
2020/12/10 02:50:50;;;;;;;5.85;4.37;;;20.80;41.00;;;;;;1455138;95;21236;-32
2020/12/10 02:53:18;;;;;;;5.80;4.12;;;20.80;41.00;;;;;;1466491;95;21298;-33
2020/12/10 02:55:46;;;;;;;4.45;3.90;;;20.80;40.90;;;;;;1461340;95;21251;-32
2020/12/10 02:58:14;;;;;;;4.87;3.77;;;20.90;41.00;;;;;;1444884;96;21665;-31
2020/12/10 03:00:41;;;;;;;4.60;3.67;;;20.90;40.90;;;;;;1450289;96;21290;-33
2020/12/10 03:03:09;;;;;;;4.33;3.75;;;20.90;41.00;;;;;;1461325;96;21236;-32
2020/12/10 03:05:37;;;;;;;4.30;3.72;;;20.90;40.90;;;;;;1463609;95;21315;-33
2020/12/10 03:08:04;;;;;;;5.90;4.17;;;20.90;40.90;;;;;;1455540;96;22004;-33
2020/12/10 03:10:33;;;;;;;4.45;3.52;;;20.90;40.80;;;;;;1466873;96;21210;-32
2020/12/10 03:13:00;;;;;;;4.90;3.70;;;20.90;40.80;;;;;;1423987;96;21196;-33
2020/12/10 03:15:28;;;;;;;5.15;3.80;;;20.90;40.80;;;;;;1449499;96;21298;-32
2020/12/10 03:17:56;;;;;;;5.35;4.30;;;20.90;40.80;;;;;;1457344;96;21263;-33
2020/12/10 03:20:23;;;;;;;5.72;4.12;;;20.90;40.80;;;;;;1455163;96;21301;-33
2020/12/10 03:22:51;;;;;;;5.12;4.15;;;20.90;40.80;;;;;;1457930;95;21145;-33
2020/12/10 03:25:19;;;;;;;5.03;3.60;;;20.90;40.80;;;;;;1459350;95;21311;-33
2020/12/10 03:27:46;;;;;;;4.85;4.35;;;20.90;40.80;;;;;;1439805;97;21699;-34
2020/12/10 03:30:14;;;;;;;4.85;4.25;;;20.90;40.80;;;;;;1467632;96;21327;-32
2020/12/10 03:32:41;;;;;;;6.58;3.55;;;20.90;40.70;;;;;;1436021;97;21216;-33
2020/12/10 03:35:09;;;;;;;5.35;4.20;;;20.90;40.70;;;;;;1463730;96;22131;-32
2020/12/10 03:37:37;;;;;;;8.28;4.47;;;21.00;40.80;;;;;;1451806;96;21302;-33
2020/12/10 03:40:05;;;;;;;4.83;3.83;;;21.00;40.80;;;;;;1452610;95;21602;-33
2020/12/10 03:42:33;;;;;;;4.00;3.27;;;21.00;40.80;;;;;;1471883;96;21263;-33
2020/12/10 03:45:01;;;;;;;5.15;4.20;;;21.00;40.70;;;;;;1459486;95;21761;-34
2020/12/10 03:47:29;;;;;;;4.78;3.70;;;21.00;40.70;;;;;;1444521;96;21216;-33
2020/12/10 03:49:56;;;;;;;5.03;3.90;;;21.00;40.70;;;;;;1462291;95;21239;-32
2020/12/10 03:52:24;;;;;;;6.72;3.80;;;21.00;40.70;;;;;;1459571;96;21207;-33
2020/12/10 03:54:52;;;;;;;5.08;3.80;;;21.00;40.70;;;;;;1461229;96;21267;-33
2020/12/10 03:57:19;;;;;;;5.70;4.10;;;21.00;40.70;;;;;;1450221;96;21351;-33
2020/12/10 03:59:47;;;;;;;4.72;3.85;;;21.00;40.60;;;;;;1461094;95;22494;-35
2020/12/10 04:02:15;;;;;;;5.10;4.05;;;21.00;40.60;;;;;;1449181;96;21258;-32
2020/12/10 04:04:42;;;;;;;5.65;4.03;;;21.00;40.60;;;;;;1468761;95;22680;-33
2020/12/10 04:07:10;;;;;;;5.87;3.98;;;21.00;40.60;;;;;;1467773;95;21371;-32
2020/12/10 04:09:38;;;;;;;5.00;3.92;;;21.10;40.70;;;;;;1455140;96;21262;-32
2020/12/10 04:12:05;;;;;;;4.92;3.92;;;21.10;40.60;;;;;;1462254;96;21598;-32
2020/12/10 04:14:33;;;;;;;5.22;4.08;;;21.00;40.60;;;;;;1453905;96;21390;-32
2020/12/10 04:17:01;;;;;;;4.78;3.70;;;21.10;40.60;;;;;;1453747;96;21216;-32
2020/12/10 04:19:28;;;;;;;4.60;3.83;;;21.10;40.60;;;;;;1433587;97;21942;-32
2020/12/10 04:21:59;;;;;;;6.90;4.20;;;21.10;40.60;;;;;;1458528;96;21303;-32
2020/12/10 04:24:26;;;;;;;4.05;3.50;;;21.10;40.50;;;;;;1456141;96;21227;-32
2020/12/10 04:26:55;;;;;;;4.83;3.65;;;21.10;40.50;;;;;;1444136;96;22675;-33
2020/12/10 04:29:23;;;;;;;4.35;3.37;;;21.10;40.50;;;;;;1444869;97;21276;-31
2020/12/10 04:31:50;;;;;;;3.92;3.50;;;21.10;40.50;;;;;;1456728;96;21251;-32
2020/12/10 04:34:18;;;;;;;4.58;3.77;;;21.10;40.50;;;;;;1457880;96;21412;-32
2020/12/10 04:36:47;;;;;;;4.22;3.72;;;21.10;40.50;;;;;;1448111;97;22266;-32
2020/12/10 04:39:15;;;;;;;4.62;3.77;;;21.10;40.50;;;;;;1450154;96;21663;-32
2020/12/10 04:41:46;;;;;;;4.72;3.60;;;21.10;40.50;;;;;;1462291;95;21303;-33
2020/12/10 04:44:14;;;;;;;4.37;3.62;;;21.10;40.50;;;;;;1455002;96;21188;-32
2020/12/10 04:46:42;;;;;;;4.60;3.80;;;21.10;40.50;;;;;;1457231;95;21294;-32
2020/12/10 04:49:10;;;;;;;4.58;3.80;;;21.10;40.50;;;;;;1448663;96;21684;-32
2020/12/10 04:51:40;;;;;;;6.50;3.77;;;21.10;40.50;;;;;;1452455;96;21238;-32
2020/12/10 04:54:08;;;;;;;4.40;3.55;;;21.10;40.50;;;;;;1451999;96;22156;-34
2020/12/10 04:56:36;;;;;;;6.53;3.67;;;21.10;40.50;;;;;;1448207;96;21714;-33
2020/12/10 04:59:04;;;;;;;4.30;3.90;;;21.10;40.50;;;;;;1434577;97;21302;-33
2020/12/10 05:01:31;;;;;;;4.85;3.80;;;21.10;40.40;;;;;;1449339;96;21286;-35
2020/12/10 05:04:00;;;;;;;5.72;4.20;;;21.10;40.30;;;;;;1451464;95;21469;-33
2020/12/10 05:09:09;;;;;;;4.85;3.62;;;21.20;40.30;;;;;;1560714;89;26279;-35
2020/12/10 05:11:37;;;;;;;6.37;4.55;;;21.20;40.10;;;;;;1524613;92;21219;-34
2020/12/10 05:14:06;;;;;;;4.70;3.65;;;21.30;40.10;;;;;;1526369;92;21290;-35
2020/12/10 05:16:33;;;;;;;5.17;4.10;;;21.30;40.20;;;;;;1510555;92;21741;-34
2020/12/10 05:19:09;;;;;;;5.47;3.58;;;21.30;40.00;;;;;;1492709;92;21256;-33
2020/12/10 05:21:37;;;;;;;5.90;3.98;;;21.30;39.90;;;;;;1491489;94;67726;-33
2020/12/10 05:24:08;;;;;;;4.58;3.90;;;21.30;39.90;;;;;;1462400;95;21263;-35
2020/12/10 05:26:35;;;;;;;5.50;4.00;;;21.40;39.90;;;;;;1471690;95;21144;-33
2020/12/10 05:29:03;;;;;;;5.00;3.75;;;21.40;39.90;;;;;;1476163;95;21619;-34
2020/12/10 05:31:34;;;;;;;6.15;3.70;;;21.40;39.80;;;;;;1476320;95;21231;-33
2020/12/10 05:34:03;;;;;;;6.45;4.08;;;21.40;39.70;;;;;;1472017;95;21673;-34
2020/12/10 05:36:32;;;;;;;5.58;3.50;;;21.40;39.60;;;;;;1464829;95;21233;-35
2020/12/10 05:39:04;;;;;;;5.33;3.98;;;21.50;39.60;;;;;;1477765;95;23061;-34
2020/12/10 05:41:34;;;;;;;5.80;4.03;;;21.50;39.60;;;;;;1482624;94;21332;-33
2020/12/10 05:44:18;;;;;;;5.78;4.05;;;21.50;39.60;;;;;;1458221;95;21207;-34
2020/12/10 05:46:49;;;;;;;6.42;4.10;;;21.50;39.60;;;;;;1501498;92;67577;-33
2020/12/10 05:49:16;;;;;;;4.60;3.55;;;21.50;39.60;;;;;;1499627;93;21619;-32
2020/12/10 05:51:46;;;;;;;5.67;3.87;;;21.50;39.50;;;;;;1505424;93;21222;-33
2020/12/10 05:54:15;;;;;;;7.65;4.28;;;21.50;39.50;;;;;;1513872;92;21452;-35
2020/12/10 05:57:01;;;;;;;7.50;4.40;;;21.60;39.60;;;;;;1503731;93;21239;-35
2020/12/10 05:59:30;;;;;;;6.17;3.90;;;21.60;39.70;;;;;;1498371;94;67976;-32
2020/12/10 06:02:00;;;;;;;5.40;4.10;;;21.60;39.60;;;;;;1501293;94;21244;-34
2020/12/10 06:04:29;;;;;;;5.55;3.20;;;21.60;39.70;;;;;;1494020;94;21252;-32
2020/12/10 06:06:59;;;;;;;6.53;3.95;;;21.70;39.60;;;;;;1504802;94;21264;-33
2020/12/10 06:09:27;;;;;;;5.58;3.50;;;21.70;39.70;;;;;;1490814;94;21440;-34
2020/12/10 06:12:02;;;;;;;7.92;4.05;;;21.70;39.20;;;;;;1491839;94;21229;-34
2020/12/10 06:14:30;;;;;;;4.30;3.62;;;21.80;39.70;;;;;;1474148;94;21805;-32
2020/12/10 06:17:11;;;;;;;5.25;3.90;;;21.80;39.90;;;;;;1502502;93;21215;-33
2020/12/10 06:19:39;;;;;;;5.20;3.80;;;21.80;39.50;;;;;;1490814;90;67869;-33
2020/12/10 06:22:29;;;;;;;5.85;3.92;;;21.80;39.80;;;;;;1492372;94;21231;-34
2020/12/10 06:25:01;;;;;;;4.67;3.90;;;21.90;40.10;;;;;;1498707;91;67607;-33
2020/12/10 06:27:34;;;;;;;5.65;3.65;;;21.90;39.90;;;;;;1470901;95;21300;-32
2020/12/10 06:30:21;;;;;;;5.85;3.87;;;21.90;39.90;;;;;;1492495;94;21266;-33
2020/12/10 06:32:51;;;;;;;6.50;4.28;;;21.90;39.90;;;;;;1496086;93;67747;-32
2020/12/10 06:35:35;;;;;;;5.67;3.90;;;21.90;39.80;;;;;;1499566;93;21196;-32
2020/12/10 06:38:05;;;;;;;6.03;3.85;;;21.90;39.80;;;;;;1488921;94;68037;-35
2020/12/10 06:40:35;;;;;;;6.42;3.98;;;22.00;39.60;;;;;;1473562;95;21686;-34
2020/12/10 06:43:07;;;;;;;8.03;4.35;;;22.00;39.60;;;;;;1490621;93;21302;-35
2020/12/10 06:45:40;;;;;;;4.17;3.55;;;22.00;39.70;;;;;;1491883;94;21324;-34
2020/12/10 06:48:19;;;;;;;5.40;4.25;;;22.00;39.60;;;;;;1473372;94;21433;-34
2020/12/10 06:50:47;;;;;;;7.33;4.12;;;22.00;39.60;;;;;;1489462;94;21652;-31
2020/12/10 06:53:20;;;;;;;8.50;3.90;;;22.00;41.00;;;;;;1470100;95;21193;-31
2020/12/10 06:56:04;;;;;;;5.50;4.12;;;22.00;39.80;;;;;;1480938;94;21283;-32
2020/12/10 06:58:41;;;;;;;5.50;4.10;;;22.10;39.80;;;;;;1490539;94;67066;-32
2020/12/10 07:01:29;;;;;;;6.90;4.47;;;22.10;39.80;;;;;;1508453;92;22519;-32
2020/12/10 07:04:36;;;;;;;6.47;4.42;;;22.10;39.70;;;;;;1488816;94;68048;-32
2020/12/10 07:06:47;;;;;;;6.75;5.00;;;22.10;39.80;;;;;;1480749;93;67937;-33
2020/12/10 07:09:15;;;;;;;19.12;3.95;;;22.20;39.80;;;;;;1514405;92;21251;-32
2020/12/10 07:11:46;;;;;;;6.62;4.08;;;22.20;39.70;;;;;;1509145;94;21718;-33
2020/12/10 07:14:25;;;;;;;6.40;4.28;;;22.20;39.90;;;;;;1498915;92;21214;-33
2020/12/10 07:16:54;;;;;;;6.30;4.35;;;22.20;39.50;;;;;;1506190;94;21271;-33
2020/12/10 07:19:23;;;;;;;6.72;4.80;;;22.30;39.30;;;;;;1502005;92;21824;-33
2020/12/10 07:21:51;;;;;;;5.67;4.40;;;22.30;39.40;;;;;;1507731;93;21293;-32
2020/12/10 07:24:19;;;;;;;9.50;4.65;;;22.30;39.40;;;;;;1481301;95;22322;-33
2020/12/10 07:26:46;;;;;;;6.75;4.35;;;22.30;39.60;;;;;;1501463;94;21255;-32
2020/12/10 07:29:14;;;;;;;6.70;4.72;;;22.40;39.50;;;;;;1516065;93;21207;-33
2020/12/10 07:31:43;;;;;;;8.68;4.45;;;22.40;39.00;;;;;;1474965;94;21171;-32
2020/12/10 07:34:15;;;;;;;7.55;4.78;;;22.40;39.50;;;;;;1515727;93;21678;-34
2020/12/10 07:36:51;;;;;;;9.23;4.50;;;22.40;39.30;;;;;;1516869;93;21867;-32
2020/12/10 07:39:28;;;;;;;5.92;4.50;;;22.40;39.40;;;;;;1490513;94;21211;-32
2020/12/10 07:41:56;;;;;;;6.35;4.25;;;22.40;39.10;;;;;;1498811;94;21775;-33
2020/12/10 07:44:31;;;;;;;6.80;4.60;;;22.40;39.20;;;;;;1514653;92;21724;-33
2020/12/10 07:47:01;;;;;;;6.10;4.70;;;22.50;39.10;;;;;;1485679;94;21223;-32
2020/12/10 07:49:30;;;;;;;5.78;4.50;;;22.50;39.20;;;;;;1524904;93;21773;-33
2020/12/10 07:52:14;;;;;;;8.48;4.83;;;22.50;39.30;;;;;;1491122;94;21238;-31
2020/12/10 07:54:56;;;;;;;5.60;4.30;;;22.50;39.30;;;;;;1495655;94;67367;-33
2020/12/10 07:57:35;;;;;;;7.25;5.08;;;22.50;38.90;;;;;;1500681;94;67808;-33
2020/12/10 08:00:09;;;;;;;7.22;4.42;;;22.50;39.00;;;;;;1487496;94;67452;-34
2020/12/10 08:02:59;;;;;;;6.42;4.80;;;22.50;39.00;;;;;;1501748;94;21254;-33
2020/12/10 08:05:27;;;;;;;7.53;4.75;;;22.50;38.90;;;;;;1519329;89;67530;-34
2020/12/10 08:07:55;;;;;;;9.83;4.62;;;22.50;39.00;;;;;;1515518;92;21227;-32
2020/12/10 08:10:28;;;;;;;5.62;4.30;;;22.50;38.70;;;;;;1483694;95;21202;-33
2020/12/10 08:13:13;;;;;;;6.45;4.33;;;22.60;38.70;;;;;;1485227;95;21168;-32
2020/12/10 08:15:43;;;;;;;7.87;4.53;;;22.50;38.60;;;;;;1460764;94;67621;-32
2020/12/10 08:18:12;;;;;;;8.10;4.87;;;22.50;38.50;;;;;;1480825;94;21314;-32
2020/12/10 08:20:45;;;;;;;6.83;4.87;;;22.50;38.50;;;;;;1491071;94;21304;-32
2020/12/10 08:23:15;;;;;;;5.80;4.62;;;22.50;38.40;;;;;;1489812;94;21226;-32
2020/12/10 08:25:44;;;;;;;5.15;4.35;;;22.50;38.50;;;;;;1487276;94;21221;-33
2020/12/10 08:28:14;;;;;;;7.00;4.92;;;22.60;38.60;;;;;;1471414;95;21227;-34
2020/12/10 08:30:52;;;;;;;17.27;5.35;;;22.60;38.40;;;;;;1471824;95;21181;-33
2020/12/10 08:33:20;;;;;;;6.70;4.65;;;22.60;38.40;;;;;;1481309;94;21205;-32
2020/12/10 08:35:48;;;;;;;7.53;4.97;;;22.60;38.40;;;;;;1469477;95;21549;-33
2020/12/10 08:38:17;;;;;;;8.88;5.05;;;22.60;38.40;;;;;;1485077;94;21281;-33
2020/12/10 08:40:45;;;;;;;7.92;4.70;;;22.70;38.20;;;;;;1486508;94;21185;-34
2020/12/10 08:43:19;;;;;;;5.70;4.35;;;22.70;38.30;;;;;;1492239;94;21806;-32
2020/12/10 08:45:48;;;;;;;7.55;4.92;;;22.70;38.20;;;;;;1485512;94;21284;-32
2020/12/10 08:48:18;;;;;;;9.18;4.80;;;22.70;38.20;;;;;;1490923;94;21946;-34
2020/12/10 08:50:56;;;;;;;6.78;4.67;;;22.70;38.10;;;;;;1476532;95;21216;-31
2020/12/10 08:53:25;;;;;;;6.35;4.40;;;22.70;38.10;;;;;;1484953;94;21283;-33
2020/12/10 08:55:56;;;;;;;7.28;4.95;;;22.60;38.10;;;;;;1474765;95;21197;-33
2020/12/10 08:58:28;;;;;;;8.75;4.87;;;22.60;38.00;;;;;;1490504;94;21230;-31
2020/12/10 09:01:00;;;;;;;5.50;4.40;;;22.60;38.10;;;;;;1485356;94;21229;-33
2020/12/10 09:03:27;;;;;;;6.47;5.08;;;22.60;38.40;;;;;;1482926;94;21251;-31
2020/12/10 09:05:55;;;;;;;8.23;5.10;;;22.60;38.20;;;;;;1489736;94;21366;-34
2020/12/10 09:08:22;;;;;;;8.50;4.60;;;22.60;38.00;;;;;;1473984;95;21381;-32
2020/12/10 09:10:50;;;;;;;6.62;4.70;;;22.70;37.90;;;;;;1491317;94;21185;-32
2020/12/10 09:13:22;;;;;;;11.00;4.70;;;22.70;37.80;;;;;;1493593;94;21245;-32
2020/12/10 09:15:48;;;;;;;10.78;5.03;;;22.70;38.10;;;;;;1496698;94;21232;-34
2020/12/10 09:18:16;;;;;;;6.40;4.97;;;22.60;38.00;;;;;;1494473;94;21269;-34
2020/12/10 09:20:44;;;;;;;7.17;4.83;;;22.60;38.00;;;;;;1491629;94;21291;-35
2020/12/10 09:23:12;;;;;;;8.55;5.15;;;22.60;37.80;;;;;;1459232;94;21679;-33
2020/12/10 09:25:40;;;;;;;8.48;5.30;;;22.60;37.80;;;;;;1495238;93;21699;-33
2020/12/10 09:28:09;;;;;;;6.60;4.92;;;22.60;37.80;;;;;;1497176;94;21691;-33
2020/12/10 09:30:39;;;;;;;6.17;4.80;;;22.60;37.80;;;;;;1481759;94;21191;-34
2020/12/10 09:33:06;;;;;;;8.10;4.70;;;22.60;38.10;;;;;;1494661;94;21224;-31
2020/12/10 09:35:34;;;;;;;6.50;4.87;;;22.70;38.40;;;;;;1462252;94;21358;-32
2020/12/10 09:38:03;;;;;;;6.00;4.83;;;22.60;37.40;;;;;;1497891;94;21753;-32
2020/12/10 09:40:31;;;;;;;8.98;4.95;;;22.60;38.00;;;;;;1497334;94;21671;-33
2020/12/10 09:42:59;;;;;;;6.10;4.72;;;22.60;38.10;;;;;;1478989;94;21196;-35
2020/12/10 09:45:27;;;;;;;5.95;4.62;;;22.70;38.20;;;;;;1497443;94;21287;-31
2020/12/10 09:47:54;;;;;;;11.00;4.95;;;22.80;37.70;;;;;;1479699;94;21243;-32
2020/12/10 09:53:03;;;;;;;9.08;5.35;;;22.80;37.80;;;;;;1496090;94;21164;-32
2020/12/10 09:55:46;;;;;;;6.37;4.55;;;22.80;37.60;;;;;;1496265;94;21210;-32
2020/12/10 09:58:05;;;;;;;7.03;4.85;;;22.80;37.30;;;;;;1495294;93;21219;-32
2020/12/10 10:00:33;;;;;;;7.03;5.12;;;22.70;37.40;;;;;;1497080;94;21176;-33
2020/12/10 10:03:06;;;;;;;8.78;5.20;;;22.70;37.60;;;;;;1465445;94;21195;-33
2020/12/10 10:05:30;;;;;;;8.50;4.60;;;22.70;37.40;;;;;;1492493;94;21455;-33
2020/12/10 10:07:58;;;;;;;7.70;5.05;;;22.70;37.50;;;;;;1497203;93;21192;-33
2020/12/10 10:10:26;;;;;;;6.25;4.75;;;22.70;37.50;;;;;;1501457;93;21238;-31
2020/12/10 10:12:54;;;;;;;6.10;4.90;;;22.70;37.50;;;;;;1509910;92;21218;-33
2020/12/10 10:15:23;;;;;;;7.50;4.58;;;22.70;37.50;;;;;;1503650;93;21270;-35
2020/12/10 10:17:51;;;;;;;6.80;4.75;;;22.70;37.50;;;;;;1509638;93;21762;-32
2020/12/10 10:20:18;;;;;;;5.97;4.17;;;22.70;37.50;;;;;;1496024;93;21288;-32
2020/12/10 10:22:46;;;;;;;5.53;4.90;;;22.60;37.50;;;;;;1495672;93;21296;-31
2020/12/10 10:25:14;;;;;;;6.10;4.58;;;22.60;37.50;;;;;;1508944;92;21313;-33
2020/12/10 10:27:42;;;;;;;7.28;5.28;;;22.60;38.00;;;;;;1509023;92;21214;-33
2020/12/10 10:30:10;;;;;;;6.83;4.95;;;22.60;37.40;;;;;;1490873;94;21197;-32
2020/12/10 10:32:37;;;;;;;6.15;4.37;;;22.60;37.50;;;;;;1493000;93;21197;-34
2020/12/10 10:35:05;;;;;;;5.20;4.22;;;22.60;37.50;;;;;;1477898;93;21759;-33
2020/12/10 10:37:33;;;;;;;6.78;5.05;;;22.60;37.50;;;;;;1504369;93;21286;-34
2020/12/10 10:40:01;;;;;;;9.00;4.62;;;22.60;37.50;;;;;;1506822;93;21262;-32
2020/12/10 10:42:29;;;;;;;5.45;4.40;;;22.60;37.40;;;;;;1474996;93;21269;-32
2020/12/10 10:44:57;;;;;;;7.92;4.30;;;22.60;37.50;;;;;;1504531;92;21598;-32
2020/12/10 10:47:25;;;;;;;5.47;4.72;;;22.50;37.40;;;;;;1511312;92;21199;-33
2020/12/10 10:49:52;;;;;;;9.88;5.10;;;22.50;37.40;;;;;;1489839;94;21269;-32
2020/12/10 10:52:20;;;;;;;5.08;4.30;;;22.50;38.10;;;;;;1506226;93;21226;-33
2020/12/10 10:54:48;;;;;;;6.12;4.37;;;22.50;37.60;;;;;;1510221;93;21298;-33
2020/12/10 10:57:15;;;;;;;10.68;4.20;;;22.60;37.60;;;;;;1505567;93;21179;-34
2020/12/10 10:59:43;;;;;;;9.15;4.62;;;22.60;37.70;;;;;;1507476;93;21317;-33
2020/12/10 11:02:11;;;;;;;5.70;4.35;;;22.70;37.60;;;;;;1507846;93;21286;-35
2020/12/10 11:04:38;;;;;;;6.72;5.03;;;22.70;37.60;;;;;;1508708;93;21289;-32
2020/12/10 11:07:06;;;;;;;7.33;4.40;;;22.70;37.60;;;;;;1508793;93;21199;-33
2020/12/10 11:09:34;;;;;;;7.25;4.60;;;22.70;37.80;;;;;;1492829;93;21845;-34
2020/12/10 11:12:01;;;;;;;6.17;4.80;;;22.80;37.80;;;;;;1484548;93;21202;-36
2020/12/10 11:14:30;;;;;;;5.78;4.42;;;22.80;37.90;;;;;;1484450;94;21314;-34
2020/12/10 11:16:57;;;;;;;6.05;4.35;;;22.80;37.80;;;;;;1480748;95;21763;-34
2020/12/10 11:19:26;;;;;;;8.58;4.25;;;22.80;37.80;;;;;;1476472;95;21225;-35
2020/12/10 11:21:53;;;;;;;5.47;4.58;;;22.80;37.80;;;;;;1479931;95;21257;-35
2020/12/10 11:24:21;;;;;;;5.28;4.40;;;22.80;37.40;;;;;;1479939;95;21305;-32
2020/12/10 11:26:52;;;;;;;6.33;4.50;;;22.80;37.90;;;;;;1464786;95;21693;-34
2020/12/10 11:29:20;;;;;;;5.53;4.25;;;22.80;38.10;;;;;;1483273;95;21382;-34
2020/12/10 11:31:48;;;;;;;5.70;3.80;;;22.80;38.30;;;;;;1479513;95;21578;-32
2020/12/10 11:34:16;;;;;;;5.08;4.03;;;22.80;38.00;;;;;;1465867;94;21876;-32
2020/12/10 11:36:46;;;;;;;5.53;4.28;;;22.80;38.00;;;;;;1482861;95;21257;-33
2020/12/10 11:39:14;;;;;;;4.87;4.03;;;22.80;38.20;;;;;;1485891;95;21504;-32
2020/12/10 11:41:42;;;;;;;5.17;3.62;;;22.90;39.00;;;;;;1470033;96;21215;-33
2020/12/10 11:44:10;;;;;;;5.90;3.90;;;22.90;38.50;;;;;;1473097;95;21714;-33
2020/12/10 11:46:38;;;;;;;5.08;3.80;;;22.90;38.20;;;;;;1508418;92;21252;-33
2020/12/10 11:49:05;;;;;;;5.00;3.95;;;22.90;38.20;;;;;;1471766;95;21667;-35
2020/12/10 11:51:33;;;;;;;7.22;4.08;;;22.90;38.20;;;;;;1482685;95;21247;-31
2020/12/10 11:54:01;;;;;;;5.08;3.72;;;22.90;38.30;;;;;;1455293;96;21886;-33
2020/12/10 11:56:28;;;;;;;5.28;3.77;;;22.90;38.20;;;;;;1482613;94;21316;-32
2020/12/10 11:58:56;;;;;;;5.40;3.87;;;22.90;38.70;;;;;;1483718;94;22167;-32
2020/12/10 12:01:24;;;;;;;5.33;4.10;;;23.00;38.30;;;;;;1474826;96;21293;-34
2020/12/10 12:03:52;;;;;;;5.92;4.00;;;22.90;38.00;;;;;;1488867;95;21364;-32
2020/12/10 12:06:22;;;;;;;5.30;3.75;;;22.90;38.30;;;;;;1482359;95;21291;-33
2020/12/10 12:08:52;;;;;;;6.33;4.05;;;23.00;38.20;;;;;;1480675;95;21662;-35
2020/12/10 12:11:26;;;;;;;5.75;4.20;;;23.00;38.30;;;;;;1489360;94;21903;-35
2020/12/10 12:13:54;;;;;;;4.75;3.60;;;23.00;38.20;;;;;;1498523;94;21187;-33
2020/12/10 12:16:22;;;;;;;5.40;3.70;;;23.10;38.40;;;;;;1499718;93;21224;-32
2020/12/10 12:18:50;;;;;;;6.37;4.30;;;23.10;38.30;;;;;;1499359;94;21400;-32
2020/12/10 12:21:28;;;;;;;6.08;4.15;;;23.00;38.10;;;;;;1499219;94;22155;-32
2020/12/10 12:23:57;;;;;;;7.05;3.70;;;23.00;38.20;;;;;;1495983;93;67615;-36
2020/12/10 12:26:32;;;;;;;5.67;3.75;;;23.10;38.00;;;;;;1483511;93;21222;-33
2020/12/10 12:29:01;;;;;;;5.57;3.90;;;23.10;38.20;;;;;;1497602;94;21750;-32
2020/12/10 12:31:33;;;;;;;9.35;5.08;;;23.10;38.00;;;;;;1476281;94;21919;-34
2020/12/10 12:34:01;;;;;;;6.33;4.00;;;23.10;37.50;;;;;;1494929;94;21705;-34
2020/12/10 12:36:29;;;;;;;5.22;3.05;;;23.10;37.60;;;;;;1496993;94;21240;-33
2020/12/10 12:38:57;;;;;;;6.72;4.03;;;23.00;37.60;;;;;;1479831;94;21326;-31
2020/12/10 12:41:31;;;;;;;6.20;4.08;;;23.00;37.40;;;;;;1499385;94;21213;-33
2020/12/10 12:44:00;;;;;;;8.28;3.50;;;23.00;37.40;;;;;;1496768;94;21199;-34
2020/12/10 12:46:28;;;;;;;7.42;3.90;;;22.90;39.00;;;;;;1477582;93;21365;-33
2020/12/10 12:48:57;;;;;;;7.20;3.62;;;23.00;37.60;;;;;;1493360;94;21195;-32
2020/12/10 12:51:25;;;;;;;6.20;3.83;;;23.00;37.50;;;;;;1497112;94;21270;-32
2020/12/10 12:53:52;;;;;;;5.30;3.72;;;23.00;37.40;;;;;;1499197;94;21236;-34
2020/12/10 12:56:22;;;;;;;6.25;3.87;;;23.00;37.40;;;;;;1497635;94;21898;-31
2020/12/10 12:58:51;;;;;;;10.82;3.60;;;23.00;37.50;;;;;;1464368;94;21214;-30
2020/12/10 13:01:19;;;;;;;5.67;3.77;;;22.90;37.40;;;;;;1499112;93;21301;-34